createdAt,value
2023-05-22T00:00:14.466Z,14.16
2023-05-22T00:02:44.371Z,14.10
2023-05-22T00:05:18.471Z,14.06
2023-05-22T00:07:47.361Z,14.03
2023-05-22T00:10:16.176Z,13.97
2023-05-22T00:12:44.969Z,14.02
2023-05-22T00:15:13.856Z,14.03
2023-05-22T00:17:44.571Z,13.94
2023-05-22T00:20:15.501Z,14.05
2023-05-22T00:22:45.076Z,14.07
2023-05-22T00:25:13.838Z,14.07
2023-05-22T00:27:42.544Z,14.02
2023-05-22T00:30:12.725Z,14.09
2023-05-22T00:32:41.789Z,14.11
2023-05-22T00:35:11.947Z,14.08
2023-05-22T00:37:42.051Z,14.08
2023-05-22T00:40:12.534Z,14.07
2023-05-22T00:42:41.298Z,14.11
2023-05-22T00:45:12.972Z,13.98
2023-05-22T00:47:41.927Z,14.09
2023-05-22T00:50:13.648Z,14.09
2023-05-22T00:52:47.667Z,14.02
2023-05-22T00:55:17.640Z,14.02
2023-05-22T00:57:47.542Z,14.03
2023-05-22T01:00:18.071Z,14.01
2023-05-22T01:02:48.073Z,13.99
2023-05-22T01:05:18.336Z,14.00
2023-05-22T01:07:48.880Z,14.01
2023-05-22T01:10:17.715Z,14.02
2023-05-22T01:13:04.434Z,13.97
2023-05-22T01:15:44.500Z,13.96
2023-05-22T01:18:26.509Z,13.97
2023-05-22T01:21:04.474Z,13.96
2023-05-22T01:24:44.279Z,13.93
2023-05-22T01:28:02.801Z,13.94
2023-05-22T01:30:55.037Z,13.90
2023-05-22T01:33:26.830Z,13.83
2023-05-22T01:36:00.926Z,13.86
2023-05-22T01:38:31.190Z,13.92
2023-05-22T01:41:02.156Z,13.94
2023-05-22T01:43:31.295Z,13.97
2023-05-22T01:46:02.318Z,13.97
2023-05-22T01:48:31.076Z,13.94
2023-05-22T01:51:08.938Z,14.02
2023-05-22T01:53:47.395Z,13.98
2023-05-22T01:56:30.686Z,13.94
2023-05-22T01:59:09.838Z,14.03
2023-05-22T02:01:41.319Z,14.09
2023-05-22T02:04:12.022Z,14.06
2023-05-22T02:06:43.002Z,14.11
2023-05-22T02:09:12.446Z,14.09
2023-05-22T02:11:43.685Z,14.08
2023-05-22T02:14:13.708Z,14.10
2023-05-22T02:16:47.954Z,14.13
2023-05-22T02:19:17.466Z,14.16
2023-05-22T02:22:09.970Z,14.16
2023-05-22T02:24:39.380Z,14.12
2023-05-22T02:27:08.171Z,14.15
2023-05-22T02:29:37.011Z,14.16
2023-05-22T02:32:08.567Z,14.17
2023-05-22T02:34:38.025Z,14.22
2023-05-22T02:37:07.387Z,14.25
2023-05-22T02:39:36.039Z,14.23
2023-05-22T02:42:06.820Z,14.22
2023-05-22T02:44:35.742Z,14.11
2023-05-22T02:47:04.616Z,14.03
2023-05-22T02:49:34.678Z,13.99
2023-05-22T02:52:03.523Z,14.02
2023-05-22T02:54:32.403Z,13.97
2023-05-22T02:57:01.247Z,13.94
2023-05-22T02:59:29.962Z,13.99
2023-05-22T03:01:58.811Z,13.91
2023-05-22T03:04:27.650Z,13.85
2023-05-22T03:06:57.769Z,13.83
2023-05-22T03:09:27.439Z,13.67
2023-05-22T03:11:56.306Z,13.67
2023-05-22T03:14:25.032Z,13.81
2023-05-22T03:16:54.779Z,13.84
2023-05-22T03:19:24.941Z,13.85
2023-05-22T03:21:54.487Z,13.83
2023-05-22T03:24:26.202Z,13.83
2023-05-22T03:26:54.994Z,13.83
2023-05-22T03:29:33.452Z,13.87
2023-05-22T03:32:03.574Z,13.86
2023-05-22T03:34:33.007Z,13.80
2023-05-22T03:37:02.982Z,13.80
2023-05-22T03:39:33.296Z,13.77
2023-05-22T03:42:18.843Z,13.71
2023-05-22T03:51:35.136Z,13.48
2023-05-22T03:54:04.139Z,13.55
2023-05-22T03:56:34.225Z,13.47
2023-05-22T03:59:04.518Z,13.46
2023-05-22T04:01:33.830Z,13.50
2023-05-22T04:04:02.507Z,13.46
2023-05-22T04:06:33.129Z,13.44
2023-05-22T04:09:02.694Z,13.48
2023-05-22T04:11:33.958Z,13.38
2023-05-22T04:14:05.434Z,13.32
2023-05-22T04:16:34.844Z,13.33
2023-05-22T04:19:05.908Z,13.31
2023-05-22T04:21:35.725Z,13.34
2023-05-22T04:24:07.428Z,13.34
2023-05-22T04:26:40.434Z,13.34
2023-05-22T04:29:10.686Z,13.40
2023-05-22T04:31:42.230Z,13.46
2023-05-22T04:34:13.323Z,13.50
2023-05-22T04:36:45.248Z,13.60
2023-05-22T04:39:17.855Z,13.70
2023-05-22T04:41:48.138Z,13.82
2023-05-22T04:44:18.044Z,13.93
2023-05-22T04:46:50.476Z,14.02
2023-05-22T04:49:26.991Z,14.11
2023-05-22T04:51:59.267Z,14.19
2023-05-22T04:54:31.610Z,14.24
2023-05-22T04:57:04.696Z,14.49
2023-05-22T04:59:39.328Z,14.64
2023-05-22T05:02:15.832Z,14.72
2023-05-22T05:04:47.692Z,14.79
2023-05-22T05:07:21.725Z,14.82
2023-05-22T05:09:52.776Z,14.72
2023-05-22T05:12:28.668Z,14.81
2023-05-22T05:15:09.865Z,14.93
2023-05-22T05:17:44.967Z,15.00
2023-05-22T05:20:20.408Z,15.15
2023-05-22T05:22:56.232Z,15.30
2023-05-22T05:25:31.659Z,15.50
2023-05-22T05:28:11.712Z,15.68
2023-05-22T05:30:46.244Z,15.90
2023-05-22T05:33:33.948Z,16.29
2023-05-22T05:36:24.956Z,16.71
2023-05-22T05:39:02.225Z,16.79
2023-05-22T05:41:35.390Z,16.74
2023-05-22T05:44:11.439Z,16.77
2023-05-22T05:46:47.058Z,16.89
2023-05-22T05:49:25.185Z,17.01
2023-05-22T05:51:56.787Z,17.10
2023-05-22T05:54:35.710Z,17.19
2023-05-22T05:57:14.862Z,17.12
2023-05-22T05:59:52.520Z,17.22
2023-05-22T06:02:48.841Z,17.34
2023-05-22T06:05:42.747Z,17.39
2023-05-22T06:08:27.280Z,17.50
2023-05-22T06:10:58.622Z,17.70
2023-05-22T06:13:53.550Z,17.77
2023-05-22T06:16:26.086Z,17.79
2023-05-22T06:18:57.523Z,17.79
2023-05-22T06:21:27.871Z,17.82
2023-05-22T06:24:00.738Z,17.86
2023-05-22T06:26:32.545Z,17.96
2023-05-22T06:29:02.335Z,18.15
2023-05-22T06:31:45.244Z,18.32
2023-05-22T06:34:16.640Z,18.47
2023-05-22T06:36:50.630Z,18.53
2023-05-22T06:39:25.754Z,18.53
2023-05-22T06:42:14.024Z,18.66
2023-05-22T06:45:06.398Z,18.70
2023-05-22T06:47:47.054Z,18.93
2023-05-22T06:50:19.554Z,19.17
2023-05-22T06:52:55.341Z,19.47
2023-05-22T06:55:30.127Z,19.63
2023-05-22T06:58:15.821Z,19.77
2023-05-22T07:00:48.895Z,19.74
2023-05-22T07:03:27.890Z,19.56
2023-05-22T07:06:25.766Z,19.63
2023-05-22T07:08:55.650Z,19.69
2023-05-22T07:11:25.388Z,19.63
2023-05-22T07:13:56.647Z,19.62
2023-05-22T07:16:30.747Z,19.68
2023-05-22T07:19:12.778Z,19.80
2023-05-22T07:21:46.979Z,19.93
2023-05-22T07:24:21.570Z,20.06
2023-05-22T07:26:52.478Z,20.04
2023-05-22T07:29:24.376Z,19.96
2023-05-22T07:31:59.836Z,20.12
2023-05-22T07:34:34.459Z,20.08
2023-05-22T07:37:11.561Z,20.15
2023-05-22T07:39:48.842Z,20.22
2023-05-22T07:42:39.962Z,20.21
2023-05-22T07:45:20.681Z,20.10
2023-05-22T07:51:36.079Z,19.90
2023-05-22T07:54:50.258Z,19.84
2023-05-22T07:57:53.203Z,19.93
2023-05-22T08:00:52.618Z,20.09
2023-05-22T08:03:39.033Z,20.06
2023-05-22T08:06:21.931Z,20.11
2023-05-22T08:08:55.813Z,20.09
2023-05-22T08:11:46.920Z,20.10
2023-05-22T08:14:35.742Z,20.05
2023-05-22T08:17:09.924Z,19.96
2023-05-22T08:19:46.460Z,20.16
2023-05-22T08:22:34.451Z,20.19
2023-05-22T08:25:10.644Z,20.10
2023-05-22T08:27:43.843Z,20.11
2023-05-22T08:30:29.290Z,20.05
2023-05-22T08:32:59.097Z,20.10
2023-05-22T08:35:27.956Z,20.38
2023-05-22T08:37:58.320Z,20.59
2023-05-22T08:40:38.346Z,20.72
2023-05-22T08:43:11.065Z,20.83
2023-05-22T08:45:42.662Z,20.87
2023-05-22T08:48:22.317Z,21.06
2023-05-22T08:51:02.564Z,21.15
2023-05-22T08:53:37.501Z,21.28
2023-05-22T08:56:09.056Z,21.20
2023-05-22T08:58:39.942Z,21.13
2023-05-22T09:01:15.289Z,21.17
2023-05-22T09:03:49.911Z,21.34
2023-05-22T09:06:21.401Z,21.56
2023-05-22T09:08:53.417Z,21.66
2023-05-22T09:11:23.701Z,21.91
2023-05-22T09:13:52.669Z,22.16
2023-05-22T09:16:21.664Z,22.29
2023-05-22T09:18:50.882Z,22.48
2023-05-22T09:21:29.654Z,22.74
2023-05-22T09:24:03.628Z,22.81
2023-05-22T09:26:33.048Z,22.90
2023-05-22T09:29:03.082Z,22.97
2023-05-22T09:31:32.184Z,22.94
2023-05-22T09:34:01.299Z,23.01
2023-05-22T09:36:33.667Z,23.03
2023-05-22T09:39:05.459Z,22.87
2023-05-22T09:41:37.957Z,22.63
2023-05-22T09:44:34.467Z,22.57
2023-05-22T09:47:06.779Z,22.78
2023-05-22T09:49:42.096Z,22.73
2023-05-22T09:52:13.197Z,22.88
2023-05-22T09:54:53.977Z,22.78
2023-05-22T09:57:25.693Z,22.87
2023-05-22T09:59:58.568Z,22.72
2023-05-22T10:02:29.509Z,22.61
2023-05-22T10:04:59.802Z,22.28
2023-05-22T10:07:35.714Z,22.11
2023-05-22T10:10:10.154Z,22.05
2023-05-22T10:12:46.672Z,22.05
2023-05-22T10:15:16.641Z,22.02
2023-05-22T10:17:46.775Z,22.23
2023-05-22T10:20:18.334Z,22.40
2023-05-22T10:22:50.149Z,22.59
2023-05-22T10:25:21.928Z,22.90
2023-05-22T10:27:54.217Z,22.81
2023-05-22T10:30:33.900Z,22.83
2023-05-22T10:33:38.042Z,22.92
2023-05-22T10:36:15.321Z,22.86
2023-05-22T10:39:05.564Z,22.75
2023-05-22T10:41:36.665Z,22.46
2023-05-22T10:44:05.570Z,22.24
2023-05-22T10:46:35.276Z,22.09
2023-05-22T10:49:04.253Z,21.88
2023-05-22T10:51:35.047Z,21.56
2023-05-22T10:54:05.643Z,21.41
2023-05-22T10:56:37.227Z,21.35
2023-05-22T10:59:08.359Z,21.45
2023-05-22T11:01:38.571Z,21.82
2023-05-22T11:04:15.992Z,21.96
2023-05-22T11:07:03.335Z,22.03
2023-05-22T11:09:34.050Z,22.20
2023-05-22T11:12:39.547Z,22.13
2023-05-22T11:15:18.916Z,21.85
2023-05-22T11:20:40.938Z,21.78
2023-05-22T11:23:11.848Z,21.68
2023-05-22T11:25:46.272Z,21.58
2023-05-22T11:28:17.336Z,21.58
2023-05-22T11:30:46.930Z,21.73
2023-05-22T11:33:16.705Z,22.13
2023-05-22T11:35:49.288Z,22.43
2023-05-22T11:38:21.606Z,22.75
2023-05-22T11:40:53.738Z,23.01
2023-05-22T11:43:37.059Z,23.29
2023-05-22T11:46:10.644Z,23.64
2023-05-22T11:48:43.358Z,23.74
2023-05-22T11:51:12.470Z,23.74
2023-05-22T11:53:43.491Z,23.54
2023-05-22T11:56:12.351Z,22.55
2023-05-22T11:58:42.699Z,21.31
2023-05-22T12:01:11.714Z,20.09
2023-05-22T12:03:44.340Z,18.49
2023-05-22T12:06:17.153Z,17.96
2023-05-22T12:08:47.297Z,17.63
2023-05-22T12:11:19.397Z,17.47
2023-05-22T12:14:02.963Z,17.47
2023-05-22T12:16:37.690Z,17.21
2023-05-22T12:19:09.027Z,17.08
2023-05-22T12:21:39.459Z,16.96
2023-05-22T12:24:09.424Z,17.04
2023-05-22T12:26:38.826Z,17.07
2023-05-22T12:29:09.891Z,16.92
2023-05-22T12:31:39.982Z,16.83
2023-05-22T12:34:09.336Z,16.23
2023-05-22T12:36:42.306Z,15.83
2023-05-22T12:39:13.373Z,15.33
2023-05-22T12:41:42.199Z,15.12
2023-05-22T12:44:12.886Z,14.62
2023-05-22T12:46:42.991Z,14.43
2023-05-22T12:49:14.285Z,14.25
2023-05-22T12:51:43.269Z,14.09
2023-05-22T12:57:08.392Z,13.94
2023-05-22T12:59:39.584Z,13.86
2023-05-22T13:02:14.242Z,13.82
2023-05-22T13:04:44.297Z,13.83
2023-05-22T13:07:24.503Z,13.90
2023-05-22T13:10:08.420Z,14.03
2023-05-22T13:12:47.305Z,14.10
2023-05-22T13:15:21.123Z,14.15
2023-05-22T13:17:52.938Z,14.12
2023-05-22T13:20:29.294Z,14.21
2023-05-22T13:23:03.452Z,14.23
2023-05-22T13:25:38.829Z,14.18
2023-05-22T13:28:11.110Z,14.13
2023-05-22T13:30:47.263Z,14.08
2023-05-22T13:33:24.311Z,14.13
2023-05-22T13:35:53.566Z,14.16
2023-05-22T13:38:23.594Z,14.30
2023-05-22T13:40:54.421Z,14.43
2023-05-22T13:43:33.301Z,14.46
2023-05-22T13:46:04.561Z,14.57
2023-05-22T13:48:33.633Z,14.65
2023-05-22T13:51:07.143Z,14.74
2023-05-22T13:53:38.854Z,14.72
2023-05-22T13:56:18.652Z,14.74
2023-05-22T13:58:55.056Z,14.74
2023-05-22T14:01:25.625Z,14.81
2023-05-22T14:03:57.488Z,14.90
2023-05-22T14:06:31.128Z,14.92
2023-05-22T14:09:02.039Z,15.09
2023-05-22T14:11:35.452Z,15.37
2023-05-22T14:14:19.746Z,15.71
2023-05-22T14:16:59.904Z,16.29
2023-05-22T14:19:40.044Z,16.78
2023-05-22T14:22:13.058Z,17.20
2023-05-22T14:24:46.197Z,17.42
2023-05-22T14:27:16.360Z,17.81
2023-05-22T14:29:48.600Z,18.14
2023-05-22T14:32:26.725Z,18.35
2023-05-22T14:34:55.595Z,18.43
2023-05-22T14:37:25.430Z,18.47
2023-05-22T14:39:55.854Z,18.63
2023-05-22T14:42:27.644Z,18.93
2023-05-22T14:44:59.164Z,19.12
2023-05-22T14:47:32.458Z,19.32
2023-05-22T14:50:17.499Z,19.53
2023-05-22T14:52:50.484Z,19.51
2023-05-22T14:55:33.507Z,19.82
2023-05-22T14:58:02.416Z,19.81
2023-05-22T15:00:51.550Z,19.89
2023-05-22T15:03:21.679Z,20.19
2023-05-22T15:05:51.016Z,20.36
2023-05-22T15:08:21.007Z,20.53
2023-05-22T15:10:49.802Z,20.29
2023-05-22T15:13:18.713Z,20.47
2023-05-22T15:15:48.800Z,20.65
2023-05-22T15:18:20.056Z,20.84
2023-05-22T15:20:50.543Z,20.36
2023-05-22T15:23:19.306Z,20.52
2023-05-22T15:25:48.493Z,20.36
2023-05-22T15:28:17.270Z,20.20
2023-05-22T15:30:46.219Z,20.31
2023-05-22T15:33:15.174Z,20.52
2023-05-22T15:35:46.725Z,20.87
2023-05-22T15:38:17.434Z,21.28
2023-05-22T15:40:46.369Z,21.34
2023-05-22T15:43:15.099Z,21.52
2023-05-22T15:45:48.728Z,21.97
2023-05-22T15:48:18.001Z,22.23
2023-05-22T15:50:46.883Z,22.33
2023-05-22T15:58:57.716Z,22.61
2023-05-22T16:01:26.775Z,22.90
2023-05-22T16:03:55.595Z,23.00
2023-05-22T16:06:25.418Z,23.31
2023-05-22T16:08:54.164Z,23.34
2023-05-22T16:11:24.649Z,23.43
2023-05-22T16:13:53.827Z,23.41
2023-05-22T16:16:24.255Z,23.43
2023-05-22T16:18:53.499Z,23.50
2023-05-22T16:21:28.350Z,23.50
2023-05-22T16:23:59.601Z,23.75
2023-05-22T16:26:33.594Z,23.81
2023-05-22T16:29:04.875Z,24.08
2023-05-22T16:31:40.294Z,23.92
2023-05-22T16:34:10.250Z,23.71
2023-05-22T16:36:45.971Z,23.73
2023-05-22T16:39:16.842Z,23.75
2023-05-22T16:41:46.930Z,23.73
2023-05-22T16:44:17.179Z,24.04
2023-05-22T16:46:52.738Z,24.08
2023-05-22T16:49:27.697Z,24.05
2023-05-22T16:52:01.673Z,24.17
2023-05-22T16:54:30.917Z,24.29
2023-05-22T16:57:00.492Z,24.41
2023-05-22T16:59:33.704Z,24.47
2023-05-22T17:02:13.971Z,24.65
2023-05-22T17:04:46.743Z,24.78
2023-05-22T17:07:20.350Z,24.70
2023-05-22T17:09:57.062Z,24.96
2023-05-22T17:12:33.296Z,24.96
2023-05-22T17:15:03.465Z,25.03
2023-05-22T17:17:54.828Z,25.08
2023-05-22T17:20:24.323Z,25.35
2023-05-22T17:22:56.859Z,25.37
2023-05-22T17:25:25.756Z,25.31
2023-05-22T17:27:55.345Z,25.04
2023-05-22T17:30:29.915Z,24.82
2023-05-22T17:33:00.368Z,24.63
2023-05-22T17:35:29.203Z,24.85
2023-05-22T17:37:59.782Z,24.61
2023-05-22T17:40:43.312Z,24.54
2023-05-22T17:43:16.247Z,24.43
2023-05-22T17:45:51.508Z,24.30
2023-05-22T17:48:30.848Z,23.74
2023-05-22T17:51:08.193Z,23.33
2023-05-22T17:53:39.483Z,22.99
2023-05-22T17:56:10.831Z,22.68
2023-05-22T17:58:41.017Z,22.48
2023-05-22T18:01:09.875Z,22.31
2023-05-22T18:03:42.861Z,21.67
2023-05-22T18:06:15.484Z,20.92
2023-05-22T18:08:49.073Z,20.19
2023-05-22T18:11:19.954Z,19.35
2023-05-22T18:13:49.442Z,18.74
2023-05-22T18:16:19.761Z,18.30
2023-05-22T18:18:51.002Z,17.81
2023-05-22T18:21:21.268Z,17.50
2023-05-22T18:23:55.093Z,17.28
2023-05-22T18:26:30.445Z,17.00
2023-05-22T18:29:02.448Z,16.80
2023-05-22T18:35:44.354Z,16.23
2023-05-22T18:38:13.154Z,16.07
2023-05-22T18:40:42.412Z,16.00
2023-05-22T18:43:13.667Z,15.96
2023-05-22T18:45:42.860Z,15.88
2023-05-22T18:48:11.797Z,15.86
2023-05-22T18:50:41.075Z,15.67
2023-05-22T18:53:16.163Z,15.54
2023-05-22T18:55:45.714Z,15.49
2023-05-22T18:58:14.556Z,15.36
2023-05-22T19:00:45.301Z,15.25
2023-05-22T19:03:14.770Z,15.18
2023-05-22T19:05:45.412Z,15.01
2023-05-22T19:08:16.307Z,14.95
2023-05-22T19:10:47.857Z,14.86
2023-05-22T19:13:16.695Z,14.80
2023-05-22T19:15:45.621Z,14.76
2023-05-22T19:18:14.578Z,14.67
2023-05-22T19:20:43.877Z,14.61
2023-05-22T19:23:14.300Z,14.58
2023-05-22T19:25:50.951Z,14.55
2023-05-22T19:28:19.770Z,14.46
2023-05-22T19:31:00.667Z,14.37
2023-05-22T19:33:33.873Z,14.34
2023-05-22T19:36:06.744Z,14.22
2023-05-22T19:38:40.718Z,14.07
2023-05-22T19:41:31.552Z,14.06
2023-05-22T19:44:00.443Z,14.02
2023-05-22T19:46:29.287Z,13.96
2023-05-22T19:48:59.939Z,14.00
2023-05-22T19:51:29.658Z,13.99
2023-05-22T19:54:02.258Z,14.01
2023-05-22T19:56:31.749Z,13.97
2023-05-22T19:59:02.929Z,13.89
2023-05-22T20:01:32.064Z,13.85
2023-05-22T20:04:03.052Z,13.73
2023-05-22T20:06:33.644Z,13.67
2023-05-22T20:09:06.077Z,13.62
2023-05-22T20:11:36.887Z,13.58
2023-05-22T20:14:07.718Z,13.51
2023-05-22T20:16:40.164Z,13.53
2023-05-22T20:19:10.466Z,13.46
2023-05-22T20:21:39.468Z,13.35
2023-05-22T20:24:19.954Z,13.35
2023-05-22T20:27:03.897Z,13.31
2023-05-22T20:29:38.012Z,13.27
2023-05-22T20:32:08.853Z,13.26
2023-05-22T20:34:40.845Z,13.24
2023-05-22T20:37:10.203Z,13.16
2023-05-22T20:39:41.789Z,13.17
2023-05-22T20:42:13.242Z,13.11
2023-05-22T20:44:42.142Z,13.06
2023-05-22T20:47:10.928Z,13.11
2023-05-22T20:49:40.534Z,13.06
2023-05-22T20:52:10.209Z,13.05
2023-05-22T20:54:41.650Z,12.97
2023-05-22T20:57:10.573Z,12.94
2023-05-22T20:59:39.472Z,12.89
2023-05-22T21:02:09.490Z,12.88
2023-05-22T21:04:38.590Z,12.86
2023-05-22T21:07:08.829Z,12.82
2023-05-22T21:09:40.769Z,12.76
2023-05-22T21:12:10.285Z,12.75
2023-05-22T21:14:39.084Z,12.71
2023-05-22T21:17:08.082Z,12.67
2023-05-22T21:19:36.987Z,12.61
2023-05-22T21:22:08.568Z,12.59
2023-05-22T21:24:37.418Z,12.57
2023-05-22T21:27:07.678Z,12.50
2023-05-22T21:29:36.719Z,12.45
2023-05-22T21:32:06.528Z,12.44
2023-05-22T21:34:35.453Z,12.41
2023-05-22T21:37:04.205Z,12.41
2023-05-22T21:39:32.967Z,12.35
2023-05-22T21:42:01.825Z,12.29
2023-05-22T21:44:32.067Z,12.28
2023-05-22T21:47:01.227Z,12.25
2023-05-22T21:49:30.016Z,12.22
2023-05-22T21:51:58.668Z,12.18
2023-05-22T21:54:27.416Z,12.14
2023-05-22T21:56:56.205Z,12.08
2023-05-22T21:59:24.990Z,12.01
2023-05-22T22:01:55.361Z,12.04
2023-05-22T22:04:24.449Z,11.97
2023-05-22T22:06:53.431Z,11.97
2023-05-22T22:09:22.200Z,11.89
2023-05-22T22:11:50.936Z,11.87
2023-05-22T22:14:19.729Z,11.82
2023-05-22T22:16:48.594Z,11.83
2023-05-22T22:19:18.795Z,11.78
2023-05-22T22:21:47.723Z,11.75
2023-05-22T22:24:16.603Z,11.69
2023-05-22T22:26:47.966Z,11.69
2023-05-22T22:29:17.531Z,11.65
2023-05-22T22:31:46.467Z,11.64
2023-05-22T22:34:15.300Z,11.63
2023-05-22T22:36:45.656Z,11.59
2023-05-22T22:39:14.546Z,11.58
2023-05-22T22:41:44.445Z,11.59
2023-05-22T22:44:13.233Z,11.60
2023-05-22T22:46:42.755Z,11.59
2023-05-22T22:49:11.684Z,11.53
2023-05-22T22:51:40.440Z,11.52
2023-05-22T22:54:10.792Z,11.50
2023-05-22T22:56:39.671Z,11.42
2023-05-22T22:59:08.525Z,11.40
2023-05-22T23:01:37.293Z,11.39
2023-05-22T23:04:06.292Z,11.34
2023-05-22T23:06:35.047Z,11.33
2023-05-22T23:09:04.247Z,11.23
2023-05-22T23:11:37.739Z,11.23
2023-05-22T23:14:08.354Z,11.27
2023-05-22T23:16:37.829Z,11.20
2023-05-22T23:19:07.258Z,11.13
2023-05-22T23:21:37.018Z,11.15
2023-05-22T23:24:07.142Z,11.11
2023-05-22T23:26:37.298Z,11.15
2023-05-22T23:29:06.578Z,11.03
2023-05-22T23:31:36.777Z,10.99
2023-05-22T23:34:05.645Z,11.00
2023-05-22T23:36:34.468Z,10.96
2023-05-22T23:39:03.242Z,11.01
2023-05-22T23:41:31.925Z,10.97
2023-05-22T23:44:02.169Z,10.94
2023-05-22T23:46:31.169Z,10.99
2023-05-22T23:48:59.894Z,10.99
2023-05-22T23:51:28.598Z,10.89
2023-05-22T23:53:57.323Z,10.82
2023-05-22T23:56:26.559Z,10.83
2023-05-22T23:58:55.378Z,10.79
